sensor_id;sensor_type;location;lat;lon;timestamp;P1;durP1;ratioP1;P2;durP2;ratioP2
14268;SDS011;7218;51.480;7.006;2022-12-05T00:02:20;30.55;;;19.38;;
14268;SDS011;7218;51.480;7.006;2022-12-05T00:04:47;30.95;;;20.70;;
14268;SDS011;7218;51.480;7.006;2022-12-05T00:07:14;27.65;;;20.25;;
14268;SDS011;7218;51.480;7.006;2022-12-05T00:09:40;28.98;;;20.15;;
14268;SDS011;7218;51.480;7.006;2022-12-05T00:12:07;30.08;;;20.77;;
14268;SDS011;7218;51.480;7.006;2022-12-05T00:14:33;30.02;;;20.85;;
14268;SDS011;7218;51.480;7.006;2022-12-05T00:17:00;30.02;;;20.05;;
14268;SDS011;7218;51.480;7.006;2022-12-05T00:19:26;29.90;;;19.73;;
14268;SDS011;7218;51.480;7.006;2022-12-05T00:21:54;32.15;;;20.33;;
14268;SDS011;7218;51.480;7.006;2022-12-05T00:24:22;33.72;;;19.77;;
14268;SDS011;7218;51.480;7.006;2022-12-05T00:26:48;28.73;;;18.98;;
14268;SDS011;7218;51.480;7.006;2022-12-05T00:29:15;29.70;;;20.50;;
14268;SDS011;7218;51.480;7.006;2022-12-05T00:31:42;31.13;;;19.77;;
14268;SDS011;7218;51.480;7.006;2022-12-05T00:34:08;31.00;;;19.48;;
14268;SDS011;7218;51.480;7.006;2022-12-05T00:36:35;29.60;;;20.17;;
14268;SDS011;7218;51.480;7.006;2022-12-05T00:39:05;32.42;;;19.48;;
14268;SDS011;7218;51.480;7.006;2022-12-05T00:41:34;28.45;;;19.42;;
14268;SDS011;7218;51.480;7.006;2022-12-05T00:44:01;29.13;;;20.13;;
14268;SDS011;7218;51.480;7.006;2022-12-05T00:46:29;28.50;;;20.15;;
14268;SDS011;7218;51.480;7.006;2022-12-05T00:48:57;28.17;;;19.38;;
14268;SDS011;7218;51.480;7.006;2022-12-05T00:51:26;30.65;;;19.45;;
14268;SDS011;7218;51.480;7.006;2022-12-05T00:53:54;28.30;;;19.95;;
14268;SDS011;7218;51.480;7.006;2022-12-05T00:56:24;29.92;;;19.88;;
14268;SDS011;7218;51.480;7.006;2022-12-05T00:58:52;31.58;;;20.13;;
14268;SDS011;7218;51.480;7.006;2022-12-05T01:01:20;29.48;;;19.60;;
14268;SDS011;7218;51.480;7.006;2022-12-05T01:03:50;29.90;;;20.45;;
14268;SDS011;7218;51.480;7.006;2022-12-05T01:06:18;30.35;;;19.95;;
14268;SDS011;7218;51.480;7.006;2022-12-05T01:08:45;30.65;;;19.83;;
14268;SDS011;7218;51.480;7.006;2022-12-05T01:11:13;29.73;;;20.35;;
14268;SDS011;7218;51.480;7.006;2022-12-05T01:13:42;30.25;;;20.05;;
14268;SDS011;7218;51.480;7.006;2022-12-05T01:16:12;31.02;;;20.05;;
14268;SDS011;7218;51.480;7.006;2022-12-05T01:18:39;30.77;;;20.23;;
14268;SDS011;7218;51.480;7.006;2022-12-05T01:21:05;28.15;;;19.60;;
14268;SDS011;7218;51.480;7.006;2022-12-05T01:23:32;28.83;;;19.85;;
14268;SDS011;7218;51.480;7.006;2022-12-05T01:25:59;30.35;;;20.67;;
14268;SDS011;7218;51.480;7.006;2022-12-05T01:28:30;32.35;;;20.90;;
14268;SDS011;7218;51.480;7.006;2022-12-05T01:30:58;31.52;;;20.58;;
14268;SDS011;7218;51.480;7.006;2022-12-05T01:33:30;32.47;;;20.77;;
14268;SDS011;7218;51.480;7.006;2022-12-05T01:35:56;33.63;;;20.45;;
14268;SDS011;7218;51.480;7.006;2022-12-05T01:38:23;31.15;;;20.33;;
14268;SDS011;7218;51.480;7.006;2022-12-05T01:40:50;32.75;;;20.52;;
14268;SDS011;7218;51.480;7.006;2022-12-05T01:43:25;30.00;;;19.98;;
14268;SDS011;7218;51.480;7.006;2022-12-05T01:45:52;31.85;;;20.42;;
14268;SDS011;7218;51.480;7.006;2022-12-05T01:48:21;29.88;;;20.23;;
14268;SDS011;7218;51.480;7.006;2022-12-05T01:50:53;33.10;;;20.40;;
14268;SDS011;7218;51.480;7.006;2022-12-05T01:53:20;29.08;;;19.98;;
14268;SDS011;7218;51.480;7.006;2022-12-05T01:55:47;29.90;;;20.63;;
14268;SDS011;7218;51.480;7.006;2022-12-05T01:58:16;31.65;;;20.92;;
14268;SDS011;7218;51.480;7.006;2022-12-05T02:00:44;32.25;;;20.63;;
14268;SDS011;7218;51.480;7.006;2022-12-05T02:03:13;27.95;;;19.58;;
14268;SDS011;7218;51.480;7.006;2022-12-05T02:05:43;32.15;;;20.85;;
14268;SDS011;7218;51.480;7.006;2022-12-05T02:08:12;29.77;;;19.27;;
14268;SDS011;7218;51.480;7.006;2022-12-05T02:10:39;32.65;;;21.13;;
14268;SDS011;7218;51.480;7.006;2022-12-05T02:13:11;32.05;;;21.95;;
14268;SDS011;7218;51.480;7.006;2022-12-05T02:15:48;35.65;;;22.73;;
14268;SDS011;7218;51.480;7.006;2022-12-05T02:18:27;34.25;;;22.10;;
14268;SDS011;7218;51.480;7.006;2022-12-05T02:21:09;34.60;;;22.27;;
14268;SDS011;7218;51.480;7.006;2022-12-05T02:23:55;37.08;;;23.20;;
14268;SDS011;7218;51.480;7.006;2022-12-05T02:26:55;35.38;;;22.88;;
14268;SDS011;7218;51.480;7.006;2022-12-05T02:32:33;38.67;;;23.50;;
14268;SDS011;7218;51.480;7.006;2022-12-05T02:35:12;37.28;;;23.75;;
14268;SDS011;7218;51.480;7.006;2022-12-05T02:37:48;37.08;;;23.50;;
14268;SDS011;7218;51.480;7.006;2022-12-05T02:40:20;38.22;;;23.70;;
14268;SDS011;7218;51.480;7.006;2022-12-05T02:42:53;37.60;;;23.55;;
14268;SDS011;7218;51.480;7.006;2022-12-05T02:45:26;36.75;;;23.50;;
14268;SDS011;7218;51.480;7.006;2022-12-05T02:47:56;36.78;;;22.75;;
14268;SDS011;7218;51.480;7.006;2022-12-05T02:50:26;37.50;;;23.50;;
14268;SDS011;7218;51.480;7.006;2022-12-05T02:52:57;35.92;;;22.40;;
14268;SDS011;7218;51.480;7.006;2022-12-05T02:55:27;35.08;;;22.10;;
14268;SDS011;7218;51.480;7.006;2022-12-05T02:57:56;34.35;;;22.05;;
14268;SDS011;7218;51.480;7.006;2022-12-05T03:00:27;32.13;;;20.65;;
14268;SDS011;7218;51.480;7.006;2022-12-05T03:02:55;34.83;;;21.80;;
14268;SDS011;7218;51.480;7.006;2022-12-05T03:05:26;32.45;;;20.15;;
14268;SDS011;7218;51.480;7.006;2022-12-05T03:08:00;33.10;;;20.80;;
14268;SDS011;7218;51.480;7.006;2022-12-05T03:10:32;30.88;;;20.23;;
14268;SDS011;7218;51.480;7.006;2022-12-05T03:13:02;33.15;;;20.05;;
14268;SDS011;7218;51.480;7.006;2022-12-05T03:15:34;28.88;;;19.23;;
14268;SDS011;7218;51.480;7.006;2022-12-05T03:18:05;28.50;;;18.45;;
14268;SDS011;7218;51.480;7.006;2022-12-05T03:20:37;28.77;;;18.08;;
14268;SDS011;7218;51.480;7.006;2022-12-05T03:23:10;30.42;;;19.15;;
14268;SDS011;7218;51.480;7.006;2022-12-05T03:25:39;25.67;;;17.88;;
14268;SDS011;7218;51.480;7.006;2022-12-05T03:28:18;30.83;;;19.30;;
14268;SDS011;7218;51.480;7.006;2022-12-05T03:30:50;30.08;;;19.35;;
14268;SDS011;7218;51.480;7.006;2022-12-05T03:33:19;29.80;;;19.17;;
14268;SDS011;7218;51.480;7.006;2022-12-05T03:35:50;30.25;;;18.48;;
14268;SDS011;7218;51.480;7.006;2022-12-05T03:38:24;29.42;;;18.15;;
14268;SDS011;7218;51.480;7.006;2022-12-05T03:40:56;28.25;;;18.40;;
14268;SDS011;7218;51.480;7.006;2022-12-05T03:43:32;32.13;;;19.60;;
14268;SDS011;7218;51.480;7.006;2022-12-05T03:46:07;28.67;;;18.67;;
14268;SDS011;7218;51.480;7.006;2022-12-05T03:48:38;30.70;;;19.33;;
14268;SDS011;7218;51.480;7.006;2022-12-05T03:51:11;31.67;;;19.73;;
14268;SDS011;7218;51.480;7.006;2022-12-05T03:53:43;30.35;;;19.75;;
14268;SDS011;7218;51.480;7.006;2022-12-05T03:56:14;33.72;;;21.30;;
14268;SDS011;7218;51.480;7.006;2022-12-05T03:58:46;32.97;;;20.40;;
14268;SDS011;7218;51.480;7.006;2022-12-05T04:01:22;33.72;;;22.05;;
14268;SDS011;7218;51.480;7.006;2022-12-05T04:03:53;34.92;;;22.10;;
14268;SDS011;7218;51.480;7.006;2022-12-05T04:06:23;34.95;;;21.30;;
14268;SDS011;7218;51.480;7.006;2022-12-05T04:08:55;34.13;;;20.92;;
14268;SDS011;7218;51.480;7.006;2022-12-05T04:11:28;35.63;;;22.00;;
14268;SDS011;7218;51.480;7.006;2022-12-05T04:14:00;38.63;;;21.73;;
14268;SDS011;7218;51.480;7.006;2022-12-05T04:16:32;34.80;;;22.15;;
14268;SDS011;7218;51.480;7.006;2022-12-05T04:19:21;34.67;;;21.38;;
14268;SDS011;7218;51.480;7.006;2022-12-05T04:21:53;37.65;;;22.40;;
14268;SDS011;7218;51.480;7.006;2022-12-05T04:24:21;39.13;;;23.15;;
14268;SDS011;7218;51.480;7.006;2022-12-05T04:27:09;34.90;;;22.17;;
14268;SDS011;7218;51.480;7.006;2022-12-05T04:29:44;38.38;;;22.60;;
14268;SDS011;7218;51.480;7.006;2022-12-05T04:32:19;37.80;;;22.63;;
14268;SDS011;7218;51.480;7.006;2022-12-05T04:34:52;35.47;;;22.15;;
14268;SDS011;7218;51.480;7.006;2022-12-05T04:37:22;37.28;;;22.70;;
14268;SDS011;7218;51.480;7.006;2022-12-05T04:39:52;36.75;;;22.80;;
14268;SDS011;7218;51.480;7.006;2022-12-05T04:42:22;36.95;;;22.67;;
14268;SDS011;7218;51.480;7.006;2022-12-05T04:44:54;36.00;;;22.75;;
14268;SDS011;7218;51.480;7.006;2022-12-05T04:47:27;38.80;;;23.80;;
14268;SDS011;7218;51.480;7.006;2022-12-05T04:49:56;36.03;;;22.67;;
14268;SDS011;7218;51.480;7.006;2022-12-05T04:52:25;38.92;;;23.85;;
14268;SDS011;7218;51.480;7.006;2022-12-05T04:54:56;36.05;;;22.05;;
14268;SDS011;7218;51.480;7.006;2022-12-05T04:57:28;35.17;;;22.55;;
14268;SDS011;7218;51.480;7.006;2022-12-05T04:59:58;35.25;;;23.15;;
14268;SDS011;7218;51.480;7.006;2022-12-05T05:02:28;35.25;;;22.13;;
14268;SDS011;7218;51.480;7.006;2022-12-05T05:04:59;37.92;;;23.38;;
14268;SDS011;7218;51.480;7.006;2022-12-05T05:07:28;32.90;;;21.73;;
14268;SDS011;7218;51.480;7.006;2022-12-05T05:09:54;38.35;;;22.70;;
14268;SDS011;7218;51.480;7.006;2022-12-05T05:12:22;37.85;;;23.63;;
14268;SDS011;7218;51.480;7.006;2022-12-05T05:14:48;34.78;;;22.40;;
14268;SDS011;7218;51.480;7.006;2022-12-05T05:17:14;37.28;;;22.40;;
14268;SDS011;7218;51.480;7.006;2022-12-05T05:19:42;33.10;;;21.73;;
14268;SDS011;7218;51.480;7.006;2022-12-05T05:22:09;34.10;;;22.30;;
14268;SDS011;7218;51.480;7.006;2022-12-05T05:24:35;34.58;;;22.13;;
14268;SDS011;7218;51.480;7.006;2022-12-05T05:27:02;35.42;;;21.67;;
14268;SDS011;7218;51.480;7.006;2022-12-05T05:29:28;35.00;;;21.73;;
14268;SDS011;7218;51.480;7.006;2022-12-05T05:31:55;35.15;;;22.30;;
14268;SDS011;7218;51.480;7.006;2022-12-05T05:34:21;34.78;;;21.67;;
14268;SDS011;7218;51.480;7.006;2022-12-05T05:36:51;32.22;;;21.27;;
14268;SDS011;7218;51.480;7.006;2022-12-05T05:39:18;33.85;;;22.10;;
14268;SDS011;7218;51.480;7.006;2022-12-05T05:41:44;33.35;;;21.42;;
14268;SDS011;7218;51.480;7.006;2022-12-05T05:44:11;32.22;;;21.15;;
14268;SDS011;7218;51.480;7.006;2022-12-05T05:46:37;34.33;;;21.70;;
14268;SDS011;7218;51.480;7.006;2022-12-05T05:49:04;32.95;;;21.45;;
14268;SDS011;7218;51.480;7.006;2022-12-05T05:51:31;32.75;;;21.67;;
14268;SDS011;7218;51.480;7.006;2022-12-05T05:53:59;32.83;;;20.67;;
14268;SDS011;7218;51.480;7.006;2022-12-05T05:56:26;32.13;;;19.58;;
14268;SDS011;7218;51.480;7.006;2022-12-05T05:58:53;32.45;;;20.40;;
14268;SDS011;7218;51.480;7.006;2022-12-05T06:01:21;32.22;;;20.50;;
14268;SDS011;7218;51.480;7.006;2022-12-05T06:03:48;33.08;;;20.00;;
14268;SDS011;7218;51.480;7.006;2022-12-05T06:06:15;29.42;;;19.60;;
14268;SDS011;7218;51.480;7.006;2022-12-05T06:08:43;30.55;;;19.60;;
14268;SDS011;7218;51.480;7.006;2022-12-05T06:11:12;28.70;;;18.20;;
14268;SDS011;7218;51.480;7.006;2022-12-05T06:13:39;30.17;;;19.35;;
14268;SDS011;7218;51.480;7.006;2022-12-05T06:16:07;30.92;;;18.98;;
14268;SDS011;7218;51.480;7.006;2022-12-05T06:18:37;27.83;;;18.80;;
14268;SDS011;7218;51.480;7.006;2022-12-05T06:21:04;29.35;;;19.50;;
14268;SDS011;7218;51.480;7.006;2022-12-05T06:23:33;27.80;;;18.58;;
14268;SDS011;7218;51.480;7.006;2022-12-05T06:26:00;26.95;;;17.30;;
14268;SDS011;7218;51.480;7.006;2022-12-05T06:28:29;27.95;;;17.40;;
14268;SDS011;7218;51.480;7.006;2022-12-05T06:31:11;24.30;;;16.40;;
14268;SDS011;7218;51.480;7.006;2022-12-05T06:33:38;23.55;;;15.65;;
14268;SDS011;7218;51.480;7.006;2022-12-05T06:36:06;22.77;;;15.32;;
14268;SDS011;7218;51.480;7.006;2022-12-05T06:38:35;20.67;;;15.25;;
14268;SDS011;7218;51.480;7.006;2022-12-05T06:41:03;24.20;;;15.93;;
14268;SDS011;7218;51.480;7.006;2022-12-05T06:43:31;22.23;;;15.15;;
14268;SDS011;7218;51.480;7.006;2022-12-05T06:45:58;23.13;;;14.93;;
14268;SDS011;7218;51.480;7.006;2022-12-05T06:48:25;23.25;;;14.98;;
14268;SDS011;7218;51.480;7.006;2022-12-05T06:50:51;18.95;;;14.25;;
14268;SDS011;7218;51.480;7.006;2022-12-05T06:53:18;22.52;;;15.20;;
14268;SDS011;7218;51.480;7.006;2022-12-05T06:55:53;23.20;;;15.13;;
14268;SDS011;7218;51.480;7.006;2022-12-05T06:58:20;22.73;;;15.13;;
14268;SDS011;7218;51.480;7.006;2022-12-05T07:00:48;22.80;;;14.98;;
14268;SDS011;7218;51.480;7.006;2022-12-05T07:03:32;23.65;;;15.13;;
14268;SDS011;7218;51.480;7.006;2022-12-05T07:05:59;24.45;;;16.08;;
14268;SDS011;7218;51.480;7.006;2022-12-05T07:08:26;24.88;;;15.40;;
14268;SDS011;7218;51.480;7.006;2022-12-05T07:10:52;22.75;;;15.60;;
14268;SDS011;7218;51.480;7.006;2022-12-05T07:13:19;22.73;;;15.63;;
14268;SDS011;7218;51.480;7.006;2022-12-05T07:15:47;21.20;;;14.57;;
14268;SDS011;7218;51.480;7.006;2022-12-05T07:18:16;22.45;;;14.23;;
14268;SDS011;7218;51.480;7.006;2022-12-05T07:20:43;20.50;;;14.32;;
14268;SDS011;7218;51.480;7.006;2022-12-05T07:23:10;20.98;;;14.18;;
14268;SDS011;7218;51.480;7.006;2022-12-05T07:25:38;20.20;;;13.85;;
14268;SDS011;7218;51.480;7.006;2022-12-05T07:28:05;18.92;;;13.60;;
14268;SDS011;7218;51.480;7.006;2022-12-05T07:30:33;18.85;;;13.75;;
14268;SDS011;7218;51.480;7.006;2022-12-05T07:33:01;20.70;;;14.40;;
14268;SDS011;7218;51.480;7.006;2022-12-05T07:35:29;17.83;;;13.18;;
14268;SDS011;7218;51.480;7.006;2022-12-05T07:37:55;19.80;;;14.13;;
14268;SDS011;7218;51.480;7.006;2022-12-05T07:40:22;18.20;;;13.25;;
14268;SDS011;7218;51.480;7.006;2022-12-05T07:42:49;17.10;;;12.93;;
14268;SDS011;7218;51.480;7.006;2022-12-05T07:45:17;16.83;;;13.00;;
14268;SDS011;7218;51.480;7.006;2022-12-05T07:47:44;17.70;;;13.15;;
14268;SDS011;7218;51.480;7.006;2022-12-05T07:50:12;17.83;;;12.40;;
14268;SDS011;7218;51.480;7.006;2022-12-05T07:52:39;16.75;;;12.18;;
14268;SDS011;7218;51.480;7.006;2022-12-05T07:55:06;16.10;;;11.82;;
14268;SDS011;7218;51.480;7.006;2022-12-05T07:57:33;17.15;;;12.27;;
14268;SDS011;7218;51.480;7.006;2022-12-05T08:00:00;15.20;;;11.77;;
14268;SDS011;7218;51.480;7.006;2022-12-05T08:02:26;14.95;;;11.25;;
14268;SDS011;7218;51.480;7.006;2022-12-05T08:04:53;16.55;;;11.23;;
14268;SDS011;7218;51.480;7.006;2022-12-05T08:07:21;15.05;;;11.20;;
14268;SDS011;7218;51.480;7.006;2022-12-05T08:09:47;16.00;;;11.60;;
14268;SDS011;7218;51.480;7.006;2022-12-05T08:12:14;16.45;;;11.82;;
14268;SDS011;7218;51.480;7.006;2022-12-05T08:14:40;14.27;;;11.20;;
14268;SDS011;7218;51.480;7.006;2022-12-05T08:17:06;14.80;;;11.70;;
14268;SDS011;7218;51.480;7.006;2022-12-05T08:19:33;14.63;;;11.32;;
14268;SDS011;7218;51.480;7.006;2022-12-05T08:21:59;15.85;;;11.93;;
14268;SDS011;7218;51.480;7.006;2022-12-05T08:24:27;14.60;;;10.98;;
14268;SDS011;7218;51.480;7.006;2022-12-05T08:26:54;15.00;;;11.30;;
14268;SDS011;7218;51.480;7.006;2022-12-05T08:29:20;16.33;;;11.40;;
14268;SDS011;7218;51.480;7.006;2022-12-05T08:31:48;15.60;;;11.98;;
14268;SDS011;7218;51.480;7.006;2022-12-05T08:34:16;14.15;;;11.52;;
14268;SDS011;7218;51.480;7.006;2022-12-05T08:36:44;14.13;;;10.68;;
14268;SDS011;7218;51.480;7.006;2022-12-05T08:39:12;15.45;;;11.55;;
14268;SDS011;7218;51.480;7.006;2022-12-05T08:41:41;15.00;;;11.32;;
14268;SDS011;7218;51.480;7.006;2022-12-05T08:44:08;14.90;;;11.73;;
14268;SDS011;7218;51.480;7.006;2022-12-05T08:46:40;16.50;;;11.85;;
14268;SDS011;7218;51.480;7.006;2022-12-05T08:49:09;14.70;;;11.38;;
14268;SDS011;7218;51.480;7.006;2022-12-05T08:51:36;16.27;;;11.40;;
14268;SDS011;7218;51.480;7.006;2022-12-05T08:54:02;15.70;;;12.15;;
14268;SDS011;7218;51.480;7.006;2022-12-05T08:56:29;16.10;;;12.27;;
14268;SDS011;7218;51.480;7.006;2022-12-05T08:58:59;16.90;;;12.70;;
14268;SDS011;7218;51.480;7.006;2022-12-05T09:01:26;15.93;;;11.88;;
14268;SDS011;7218;51.480;7.006;2022-12-05T09:03:55;17.17;;;12.15;;
14268;SDS011;7218;51.480;7.006;2022-12-05T09:06:23;16.38;;;13.10;;
14268;SDS011;7218;51.480;7.006;2022-12-05T09:08:51;17.75;;;12.60;;
14268;SDS011;7218;51.480;7.006;2022-12-05T09:11:20;16.20;;;12.93;;
14268;SDS011;7218;51.480;7.006;2022-12-05T09:13:49;17.80;;;13.18;;
14268;SDS011;7218;51.480;7.006;2022-12-05T09:16:18;16.35;;;12.90;;
14268;SDS011;7218;51.480;7.006;2022-12-05T09:18:46;16.45;;;12.60;;
14268;SDS011;7218;51.480;7.006;2022-12-05T09:21:14;16.02;;;12.68;;
14268;SDS011;7218;51.480;7.006;2022-12-05T09:23:42;16.10;;;12.55;;
14268;SDS011;7218;51.480;7.006;2022-12-05T09:26:10;16.52;;;13.40;;
14268;SDS011;7218;51.480;7.006;2022-12-05T09:28:38;18.10;;;13.88;;
14268;SDS011;7218;51.480;7.006;2022-12-05T09:31:06;18.73;;;12.68;;
14268;SDS011;7218;51.480;7.006;2022-12-05T09:33:38;18.45;;;13.48;;
14268;SDS011;7218;51.480;7.006;2022-12-05T09:36:06;17.05;;;13.38;;
14268;SDS011;7218;51.480;7.006;2022-12-05T09:38:34;17.27;;;13.85;;
14268;SDS011;7218;51.480;7.006;2022-12-05T09:41:03;17.70;;;13.23;;
14268;SDS011;7218;51.480;7.006;2022-12-05T09:43:37;19.75;;;14.88;;
14268;SDS011;7218;51.480;7.006;2022-12-05T09:46:15;17.77;;;14.30;;
14268;SDS011;7218;51.480;7.006;2022-12-05T09:48:47;19.05;;;14.18;;
14268;SDS011;7218;51.480;7.006;2022-12-05T09:51:15;18.35;;;14.57;;
14268;SDS011;7218;51.480;7.006;2022-12-05T09:53:41;18.48;;;13.98;;
14268;SDS011;7218;51.480;7.006;2022-12-05T09:56:11;19.80;;;14.85;;
14268;SDS011;7218;51.480;7.006;2022-12-05T09:58:45;20.52;;;15.45;;
14268;SDS011;7218;51.480;7.006;2022-12-05T10:01:24;20.40;;;14.68;;
14268;SDS011;7218;51.480;7.006;2022-12-05T10:04:03;20.20;;;15.77;;
14268;SDS011;7218;51.480;7.006;2022-12-05T10:06:39;20.88;;;15.40;;
14268;SDS011;7218;51.480;7.006;2022-12-05T10:09:12;20.42;;;14.95;;
14268;SDS011;7218;51.480;7.006;2022-12-05T10:11:54;21.27;;;15.52;;
14268;SDS011;7218;51.480;7.006;2022-12-05T10:14:29;21.42;;;15.88;;
14268;SDS011;7218;51.480;7.006;2022-12-05T10:17:06;22.20;;;15.43;;
14268;SDS011;7218;51.480;7.006;2022-12-05T10:19:38;21.90;;;15.50;;
14268;SDS011;7218;51.480;7.006;2022-12-05T10:22:12;21.88;;;16.33;;
14268;SDS011;7218;51.480;7.006;2022-12-05T10:24:44;20.15;;;15.35;;
14268;SDS011;7218;51.480;7.006;2022-12-05T10:27:17;20.73;;;15.85;;
14268;SDS011;7218;51.480;7.006;2022-12-05T10:29:47;20.48;;;15.65;;
14268;SDS011;7218;51.480;7.006;2022-12-05T10:32:22;20.73;;;15.25;;
14268;SDS011;7218;51.480;7.006;2022-12-05T10:34:57;21.10;;;16.13;;
14268;SDS011;7218;51.480;7.006;2022-12-05T10:37:32;21.27;;;15.13;;
14268;SDS011;7218;51.480;7.006;2022-12-05T10:39:58;18.08;;;14.32;;
14268;SDS011;7218;51.480;7.006;2022-12-05T10:42:25;19.23;;;14.57;;
14268;SDS011;7218;51.480;7.006;2022-12-05T10:44:55;20.30;;;14.90;;
14268;SDS011;7218;51.480;7.006;2022-12-05T10:47:23;20.48;;;15.18;;
14268;SDS011;7218;51.480;7.006;2022-12-05T10:49:50;18.00;;;14.30;;
14268;SDS011;7218;51.480;7.006;2022-12-05T10:52:19;19.00;;;14.45;;
14268;SDS011;7218;51.480;7.006;2022-12-05T10:54:46;18.98;;;14.73;;
14268;SDS011;7218;51.480;7.006;2022-12-05T10:57:20;16.67;;;13.73;;
14268;SDS011;7218;51.480;7.006;2022-12-05T10:59:48;18.45;;;13.70;;
14268;SDS011;7218;51.480;7.006;2022-12-05T11:02:17;18.40;;;14.27;;
14268;SDS011;7218;51.480;7.006;2022-12-05T11:04:48;21.33;;;14.43;;
14268;SDS011;7218;51.480;7.006;2022-12-05T11:07:24;19.73;;;14.73;;
14268;SDS011;7218;51.480;7.006;2022-12-05T11:09:54;21.67;;;16.20;;
14268;SDS011;7218;51.480;7.006;2022-12-05T11:12:21;18.55;;;15.32;;
14268;SDS011;7218;51.480;7.006;2022-12-05T11:14:53;20.50;;;15.55;;
14268;SDS011;7218;51.480;7.006;2022-12-05T11:17:23;22.35;;;16.02;;
14268;SDS011;7218;51.480;7.006;2022-12-05T11:19:51;20.88;;;16.40;;
14268;SDS011;7218;51.480;7.006;2022-12-05T11:22:18;22.70;;;17.33;;
14268;SDS011;7218;51.480;7.006;2022-12-05T11:24:47;22.75;;;17.80;;
14268;SDS011;7218;51.480;7.006;2022-12-05T11:27:20;23.35;;;17.58;;
14268;SDS011;7218;51.480;7.006;2022-12-05T11:29:57;21.90;;;17.85;;
14268;SDS011;7218;51.480;7.006;2022-12-05T11:32:26;21.70;;;17.40;;
14268;SDS011;7218;51.480;7.006;2022-12-05T11:34:55;21.00;;;17.17;;
14268;SDS011;7218;51.480;7.006;2022-12-05T11:37:30;22.10;;;16.83;;
14268;SDS011;7218;51.480;7.006;2022-12-05T11:40:02;20.95;;;16.77;;
14268;SDS011;7218;51.480;7.006;2022-12-05T11:42:38;21.40;;;17.08;;
14268;SDS011;7218;51.480;7.006;2022-12-05T11:45:31;19.25;;;14.98;;
14268;SDS011;7218;51.480;7.006;2022-12-05T11:48:18;20.63;;;15.07;;
14268;SDS011;7218;51.480;7.006;2022-12-05T11:51:00;19.52;;;14.57;;
14268;SDS011;7218;51.480;7.006;2022-12-05T11:53:39;19.52;;;15.05;;
14268;SDS011;7218;51.480;7.006;2022-12-05T11:56:25;16.25;;;13.38;;
14268;SDS011;7218;51.480;7.006;2022-12-05T11:59:07;15.88;;;12.98;;
14268;SDS011;7218;51.480;7.006;2022-12-05T12:01:52;15.93;;;13.00;;
14268;SDS011;7218;51.480;7.006;2022-12-05T12:07:32;13.95;;;12.02;;
14268;SDS011;7218;51.480;7.006;2022-12-05T12:10:12;13.30;;;11.77;;
14268;SDS011;7218;51.480;7.006;2022-12-05T12:12:50;14.18;;;12.15;;
14268;SDS011;7218;51.480;7.006;2022-12-05T12:15:31;14.85;;;12.07;;
14268;SDS011;7218;51.480;7.006;2022-12-05T12:18:11;14.55;;;11.48;;
14268;SDS011;7218;51.480;7.006;2022-12-05T12:20:51;14.82;;;12.02;;
14268;SDS011;7218;51.480;7.006;2022-12-05T12:23:38;15.57;;;12.07;;
14268;SDS011;7218;51.480;7.006;2022-12-05T12:26:12;14.90;;;11.50;;
14268;SDS011;7218;51.480;7.006;2022-12-05T12:28:49;13.77;;;11.48;;
14268;SDS011;7218;51.480;7.006;2022-12-05T12:31:34;13.32;;;10.65;;
14268;SDS011;7218;51.480;7.006;2022-12-05T12:34:17;14.55;;;11.45;;
14268;SDS011;7218;51.480;7.006;2022-12-05T12:36:58;14.27;;;11.23;;
14268;SDS011;7218;51.480;7.006;2022-12-05T12:39:30;13.52;;;11.52;;
14268;SDS011;7218;51.480;7.006;2022-12-05T12:42:15;13.27;;;11.25;;
14268;SDS011;7218;51.480;7.006;2022-12-05T12:45:11;14.10;;;10.77;;
14268;SDS011;7218;51.480;7.006;2022-12-05T12:47:49;17.23;;;11.23;;
14268;SDS011;7218;51.480;7.006;2022-12-05T12:50:27;15.70;;;11.35;;
14268;SDS011;7218;51.480;7.006;2022-12-05T12:53:04;15.75;;;11.90;;
14268;SDS011;7218;51.480;7.006;2022-12-05T12:55:52;13.77;;;11.20;;
14268;SDS011;7218;51.480;7.006;2022-12-05T12:58:35;16.80;;;11.70;;
14268;SDS011;7218;51.480;7.006;2022-12-05T13:01:15;13.93;;;11.77;;
14268;SDS011;7218;51.480;7.006;2022-12-05T13:03:51;14.57;;;11.35;;
14268;SDS011;7218;51.480;7.006;2022-12-05T13:06:27;13.77;;;11.05;;
14268;SDS011;7218;51.480;7.006;2022-12-05T13:08:59;13.80;;;10.65;;
14268;SDS011;7218;51.480;7.006;2022-12-05T13:11:32;14.90;;;11.25;;
14268;SDS011;7218;51.480;7.006;2022-12-05T13:14:02;13.90;;;11.02;;
14268;SDS011;7218;51.480;7.006;2022-12-05T13:16:38;13.25;;;11.48;;
14268;SDS011;7218;51.480;7.006;2022-12-05T13:19:10;15.88;;;11.98;;
14268;SDS011;7218;51.480;7.006;2022-12-05T13:21:49;14.77;;;11.52;;
14268;SDS011;7218;51.480;7.006;2022-12-05T13:24:16;14.35;;;11.85;;
14268;SDS011;7218;51.480;7.006;2022-12-05T13:29:26;16.90;;;13.07;;
14268;SDS011;7218;51.480;7.006;2022-12-05T13:31:58;19.88;;;13.90;;
14268;SDS011;7218;51.480;7.006;2022-12-05T13:34:36;18.75;;;13.65;;
14268;SDS011;7218;51.480;7.006;2022-12-05T13:37:10;14.90;;;12.38;;
14268;SDS011;7218;51.480;7.006;2022-12-05T13:40:02;15.85;;;12.63;;
14268;SDS011;7218;51.480;7.006;2022-12-05T13:42:47;19.35;;;14.10;;
14268;SDS011;7218;51.480;7.006;2022-12-05T13:45:25;21.13;;;15.40;;
14268;SDS011;7218;51.480;7.006;2022-12-05T13:47:54;18.75;;;13.93;;
14268;SDS011;7218;51.480;7.006;2022-12-05T13:50:34;18.17;;;14.10;;
14268;SDS011;7218;51.480;7.006;2022-12-05T13:53:18;17.25;;;13.77;;
14268;SDS011;7218;51.480;7.006;2022-12-05T13:55:54;15.98;;;13.20;;
14268;SDS011;7218;51.480;7.006;2022-12-05T14:07:09;16.85;;;13.40;;
14268;SDS011;7218;51.480;7.006;2022-12-05T14:09:50;15.35;;;12.70;;
14268;SDS011;7218;51.480;7.006;2022-12-05T14:12:28;17.33;;;13.00;;
14268;SDS011;7218;51.480;7.006;2022-12-05T14:14:57;15.75;;;12.80;;
14268;SDS011;7218;51.480;7.006;2022-12-05T14:17:24;16.00;;;12.73;;
14268;SDS011;7218;51.480;7.006;2022-12-05T14:19:59;17.13;;;13.48;;
14268;SDS011;7218;51.480;7.006;2022-12-05T14:22:47;16.67;;;12.80;;
14268;SDS011;7218;51.480;7.006;2022-12-05T14:25:28;15.57;;;12.55;;
14268;SDS011;7218;51.480;7.006;2022-12-05T14:28:18;18.02;;;12.32;;
14268;SDS011;7218;51.480;7.006;2022-12-05T14:31:02;21.95;;;16.73;;
14268;SDS011;7218;51.480;7.006;2022-12-05T14:33:41;30.58;;;20.05;;
14268;SDS011;7218;51.480;7.006;2022-12-05T14:36:13;28.95;;;19.08;;
14268;SDS011;7218;51.480;7.006;2022-12-05T14:38:43;23.30;;;17.45;;
14268;SDS011;7218;51.480;7.006;2022-12-05T14:41:11;23.83;;;17.05;;
14268;SDS011;7218;51.480;7.006;2022-12-05T14:43:39;23.13;;;15.50;;
14268;SDS011;7218;51.480;7.006;2022-12-05T14:46:07;20.95;;;15.30;;
14268;SDS011;7218;51.480;7.006;2022-12-05T14:48:44;17.67;;;14.70;;
14268;SDS011;7218;51.480;7.006;2022-12-05T14:54:11;18.80;;;13.93;;
14268;SDS011;7218;51.480;7.006;2022-12-05T14:56:41;16.90;;;14.32;;
14268;SDS011;7218;51.480;7.006;2022-12-05T14:59:13;18.25;;;13.25;;
14268;SDS011;7218;51.480;7.006;2022-12-05T15:01:48;15.90;;;12.50;;
14268;SDS011;7218;51.480;7.006;2022-12-05T15:04:18;15.45;;;12.73;;
14268;SDS011;7218;51.480;7.006;2022-12-05T15:06:50;15.40;;;12.57;;
14268;SDS011;7218;51.480;7.006;2022-12-05T15:09:30;16.25;;;12.65;;
14268;SDS011;7218;51.480;7.006;2022-12-05T15:12:09;14.00;;;12.00;;
14268;SDS011;7218;51.480;7.006;2022-12-05T15:14:47;14.43;;;11.93;;
14268;SDS011;7218;51.480;7.006;2022-12-05T15:17:23;15.70;;;11.57;;
14268;SDS011;7218;51.480;7.006;2022-12-05T15:19:55;14.07;;;11.45;;